createdAt,value
2018-09-10T00:01:27.830Z,58.76
2018-09-10T00:03:56.331Z,58.41
2018-09-10T00:06:24.803Z,57.97
2018-09-10T00:08:53.110Z,57.75
2018-09-10T00:11:22.015Z,58.02
2018-09-10T00:13:50.811Z,57.72
2018-09-10T00:16:19.183Z,57.44
2018-09-10T00:18:47.649Z,57.87
2018-09-10T00:21:15.938Z,57.69
2018-09-10T00:23:44.396Z,58.58
2018-09-10T00:26:12.846Z,58.48
2018-09-10T00:28:41.258Z,57.27
2018-09-10T00:31:09.686Z,59.09
2018-09-10T00:33:38.010Z,58.63
2018-09-10T00:36:06.426Z,58.39
2018-09-10T00:38:34.767Z,56.81
2018-09-10T00:41:03.094Z,57.26
2018-09-10T00:43:31.460Z,56.45
2018-09-10T00:45:59.819Z,55.02
2018-09-10T00:48:28.189Z,55.58
2018-09-10T00:50:56.659Z,55.87
2018-09-10T00:53:25.006Z,57.10
2018-09-10T00:55:53.362Z,57.04
2018-09-10T00:58:21.825Z,56.66
2018-09-10T01:00:50.586Z,56.96
2018-09-10T01:03:18.935Z,56.39
2018-09-10T01:05:47.308Z,57.34
2018-09-10T01:08:15.628Z,57.27
2018-09-10T01:10:44.010Z,56.55
2018-09-10T01:13:12.394Z,56.02
2018-09-10T01:15:40.781Z,56.66
2018-09-10T01:18:09.152Z,55.97
2018-09-10T01:20:37.563Z,55.31
2018-09-10T01:23:05.907Z,56.43
2018-09-10T01:25:34.295Z,55.95
2018-09-10T01:28:02.771Z,55.24
2018-09-10T01:30:31.136Z,55.39
2018-09-10T01:32:59.769Z,54.68
2018-09-10T01:35:32.622Z,55.53
2018-09-10T01:38:00.978Z,55.18
2018-09-10T01:40:29.362Z,56.39
2018-09-10T01:42:57.743Z,55.22
2018-09-10T01:45:26.121Z,56.28
2018-09-10T01:47:54.530Z,57.27
2018-09-10T01:50:22.923Z,56.71
2018-09-10T01:52:51.235Z,57.62
2018-09-10T01:55:19.627Z,57.54
2018-09-10T01:57:48.016Z,57.36
2018-09-10T02:00:16.539Z,57.72
2018-09-10T02:02:44.859Z,58.30
2018-09-10T02:05:13.271Z,57.63
2018-09-10T02:07:41.595Z,57.92
2018-09-10T02:10:09.895Z,58.85
2018-09-10T02:12:38.331Z,58.05
2018-09-10T02:15:06.918Z,57.79
2018-09-10T02:17:35.231Z,59.73
2018-09-10T02:20:03.619Z,58.79
2018-09-10T02:22:31.979Z,58.86
2018-09-10T02:25:00.250Z,59.10
2018-09-10T02:27:28.621Z,60.17
2018-09-10T02:29:56.938Z,58.04
2018-09-10T02:32:25.328Z,57.97
2018-09-10T02:34:53.645Z,57.44
2018-09-10T02:37:22.022Z,57.70
2018-09-10T02:39:50.406Z,57.01
2018-09-10T02:42:18.767Z,58.82
2018-09-10T02:44:47.110Z,56.65
2018-09-10T02:47:15.414Z,56.89
2018-09-10T02:49:43.750Z,58.15
2018-09-10T02:52:12.143Z,57.17
2018-09-10T02:54:40.538Z,56.40
2018-09-10T02:57:09.122Z,56.62
2018-09-10T02:59:37.449Z,57.18
2018-09-10T03:02:05.911Z,57.04
2018-09-10T03:04:34.307Z,56.53
2018-09-10T03:07:02.744Z,55.30
2018-09-10T03:09:31.138Z,56.77
2018-09-10T03:11:59.462Z,56.69
2018-09-10T03:14:27.789Z,56.19
2018-09-10T03:16:56.133Z,56.43
2018-09-10T03:19:24.486Z,56.95
2018-09-10T03:21:52.795Z,56.34
2018-09-10T03:24:21.175Z,57.84
2018-09-10T03:26:49.523Z,57.01
2018-09-10T03:29:17.849Z,56.36
2018-09-10T03:31:46.176Z,57.74
2018-09-10T03:34:14.510Z,57.21
2018-09-10T03:36:42.927Z,56.27
2018-09-10T03:39:11.631Z,55.87
2018-09-10T03:41:39.980Z,56.88
2018-09-10T03:44:08.363Z,56.70
2018-09-10T03:46:36.742Z,57.13
2018-09-10T03:49:05.170Z,57.57
2018-09-10T03:51:33.635Z,56.66
2018-09-10T03:54:02.206Z,56.75
2018-09-10T03:56:30.711Z,57.27
2018-09-10T03:58:59.012Z,56.73
2018-09-10T04:01:27.420Z,57.46
2018-09-10T04:03:55.755Z,56.90
2018-09-10T04:06:24.150Z,57.17
2018-09-10T04:08:52.534Z,56.51
2018-09-10T04:11:20.875Z,56.14
2018-09-10T04:13:49.324Z,56.47
2018-09-10T04:16:17.607Z,56.89
2018-09-10T04:18:46.490Z,56.42
2018-09-10T04:21:14.970Z,56.21
2018-09-10T04:23:43.339Z,56.30
2018-09-10T04:26:11.799Z,56.44
2018-09-10T04:28:40.215Z,56.18
2018-09-10T04:31:08.620Z,55.88
2018-09-10T04:33:37.092Z,56.69
2018-09-10T04:36:05.652Z,57.02
2018-09-10T04:38:34.060Z,56.95
2018-09-10T04:41:02.491Z,56.38
2018-09-10T04:43:30.988Z,55.85
2018-09-10T04:45:59.359Z,55.77
2018-09-10T04:48:27.778Z,55.66
2018-09-10T04:50:56.209Z,55.90
2018-09-10T04:53:24.847Z,56.21
2018-09-10T04:55:53.198Z,56.40
2018-09-10T04:58:21.868Z,56.21
2018-09-10T05:00:50.436Z,56.13
2018-09-10T05:03:18.859Z,56.15
2018-09-10T05:05:47.250Z,55.01
2018-09-10T05:08:15.651Z,55.15
2018-09-10T05:10:44.055Z,54.74
2018-09-10T05:13:12.505Z,54.43
2018-09-10T05:15:40.978Z,53.48
2018-09-10T05:18:09.393Z,54.68
2018-09-10T05:20:37.779Z,53.93
2018-09-10T05:23:06.211Z,53.57
2018-09-10T05:25:34.652Z,53.30
2018-09-10T05:28:03.100Z,54.02
2018-09-10T05:30:31.454Z,53.02
2018-09-10T05:33:00.706Z,52.30
2018-09-10T05:35:29.398Z,52.66
2018-09-10T05:37:57.839Z,51.72
2018-09-10T05:40:26.324Z,51.98
2018-09-10T05:42:54.668Z,50.45
2018-09-10T05:45:23.062Z,50.87
2018-09-10T05:47:51.421Z,51.01
2018-09-10T05:50:19.926Z,51.91
2018-09-10T05:52:48.239Z,50.62
2018-09-10T05:55:16.584Z,49.50
2018-09-10T05:57:44.933Z,49.44
2018-09-10T06:00:13.374Z,49.86
2018-09-10T06:02:41.736Z,48.64
2018-09-10T06:05:10.059Z,48.91
2018-09-10T06:07:38.437Z,48.71
2018-09-10T06:10:07.535Z,46.68
2018-09-10T06:12:35.917Z,46.49
2018-09-10T06:15:04.342Z,46.47
2018-09-10T06:17:32.656Z,45.13
2018-09-10T06:20:01.068Z,45.83
2018-09-10T06:22:29.818Z,44.20
2018-09-10T06:24:59.150Z,43.37
2018-09-10T06:27:27.548Z,43.96
2018-09-10T06:29:55.967Z,43.19
2018-09-10T06:32:24.391Z,43.05
2018-09-10T06:34:52.729Z,42.35
2018-09-10T06:37:21.100Z,42.60
2018-09-10T06:39:49.528Z,41.46
2018-09-10T06:42:18.012Z,42.60
2018-09-10T06:44:46.418Z,41.60
2018-09-10T06:47:14.860Z,42.80
2018-09-10T06:49:43.288Z,42.36
2018-09-10T06:52:11.746Z,42.41
2018-09-10T06:54:40.168Z,41.96
2018-09-10T06:57:08.607Z,41.93
2018-09-10T06:59:37.111Z,42.19
2018-09-10T07:02:05.620Z,43.01
2018-09-10T07:04:34.051Z,43.86
2018-09-10T07:07:02.471Z,41.08
2018-09-10T07:09:30.868Z,42.77
2018-09-10T07:11:59.234Z,41.99
2018-09-10T07:14:27.629Z,41.75
2018-09-10T07:16:55.931Z,41.48
2018-09-10T07:19:24.358Z,42.27
2018-09-10T07:21:52.962Z,41.12
2018-09-10T07:24:21.368Z,41.28
2018-09-10T07:26:49.844Z,41.90
2018-09-10T07:29:18.250Z,41.53
2018-09-10T07:31:46.643Z,41.90
2018-09-10T07:34:15.014Z,42.48
2018-09-10T07:36:43.368Z,41.96
2018-09-10T07:39:12.538Z,42.03
2018-09-10T07:41:40.939Z,40.84
2018-09-10T07:44:09.602Z,40.57
2018-09-10T07:46:38.308Z,40.35
2018-09-10T07:49:06.854Z,40.06
2018-09-10T07:51:35.223Z,39.63
2018-09-10T07:54:03.625Z,40.16
2018-09-10T07:56:32.111Z,40.09
2018-09-10T07:59:00.514Z,39.66
2018-09-10T08:01:29.020Z,39.99
2018-09-10T08:03:57.411Z,40.08
2018-09-10T08:06:25.834Z,39.20
2018-09-10T08:08:54.191Z,39.77
2018-09-10T08:11:22.595Z,40.02
2018-09-10T08:13:51.070Z,39.52
2018-09-10T08:16:19.488Z,39.17
2018-09-10T08:18:47.896Z,38.51
2018-09-10T08:21:16.333Z,39.35
2018-09-10T08:23:45.778Z,37.03
2018-09-10T08:26:14.360Z,36.07
2018-09-10T08:28:42.815Z,33.87
2018-09-10T08:31:11.249Z,33.26
2018-09-10T08:33:39.796Z,32.33
2018-09-10T08:36:08.194Z,32.35
2018-09-10T08:38:36.632Z,33.63
2018-09-10T08:41:05.089Z,32.09
2018-09-10T08:43:33.491Z,31.29
2018-09-10T08:46:01.922Z,30.60
2018-09-10T08:48:30.403Z,31.74
2018-09-10T08:50:58.727Z,32.45
2018-09-10T08:53:27.075Z,34.63
2018-09-10T08:55:55.761Z,34.28
2018-09-10T08:58:23.874Z,31.70
2018-09-10T09:00:52.269Z,31.20
2018-09-10T09:03:20.678Z,31.59
2018-09-10T09:05:49.142Z,32.22
2018-09-10T09:08:17.737Z,32.78
2018-09-10T09:10:46.095Z,32.31
2018-09-10T09:13:14.450Z,33.92
2018-09-10T09:15:42.824Z,34.36
2018-09-10T09:18:11.179Z,34.89
2018-09-10T09:20:39.522Z,34.38
2018-09-10T09:23:07.890Z,35.23
2018-09-10T09:25:36.301Z,35.22
2018-09-10T09:28:04.671Z,34.61
2018-09-10T09:30:33.087Z,35.42
2018-09-10T09:33:01.489Z,34.69
2018-09-10T09:35:36.026Z,34.67
2018-09-10T09:38:10.403Z,36.12
2018-09-10T09:40:44.023Z,36.21
2018-09-10T09:43:17.819Z,34.95
2018-09-10T09:45:51.343Z,36.11
2018-09-10T09:48:19.826Z,35.86
2018-09-10T09:50:48.229Z,36.11
2018-09-10T09:53:16.608Z,35.31
2018-09-10T09:55:44.979Z,34.91
2018-09-10T09:58:13.390Z,34.16
2018-09-10T10:00:47.006Z,33.45
2018-09-10T10:03:15.773Z,31.63
2018-09-10T10:05:44.667Z,30.45
2018-09-10T10:08:13.091Z,29.99
2018-09-10T10:10:41.461Z,31.41
2018-09-10T10:13:10.000Z,31.50
2018-09-10T10:15:38.416Z,31.93
2018-09-10T10:18:06.960Z,30.23
2018-09-10T10:20:35.982Z,29.66
2018-09-10T10:23:04.382Z,31.20
2018-09-10T10:25:32.812Z,29.57
2018-09-10T10:28:01.236Z,29.70
2018-09-10T10:30:29.641Z,29.22
2018-09-10T10:32:58.039Z,28.54
2018-09-10T10:35:26.469Z,29.43
2018-09-10T10:37:54.838Z,28.53
2018-09-10T10:40:23.299Z,27.98
2018-09-10T10:42:51.743Z,27.83
2018-09-10T10:45:20.141Z,28.92
2018-09-10T10:47:48.567Z,29.28
2018-09-10T10:50:17.014Z,27.34
2018-09-10T10:52:45.698Z,28.82
2018-09-10T10:55:14.069Z,30.01
2018-09-10T10:57:42.620Z,31.05
2018-09-10T11:00:11.162Z,30.77
2018-09-10T11:02:39.624Z,31.44
2018-09-10T11:05:08.035Z,32.08
2018-09-10T11:07:36.451Z,32.50
2018-09-10T11:10:05.290Z,30.80
2018-09-10T11:12:33.690Z,32.11
2018-09-10T11:15:02.082Z,33.03
2018-09-10T11:17:31.084Z,33.60
2018-09-10T11:19:59.591Z,34.00
2018-09-10T11:22:28.243Z,34.38
2018-09-10T11:24:56.559Z,34.66
2018-09-10T11:27:25.178Z,34.30
2018-09-10T11:29:53.665Z,35.47
2018-09-10T11:32:22.138Z,35.30
2018-09-10T11:34:50.575Z,34.07
2018-09-10T11:37:18.943Z,34.33
2018-09-10T11:39:47.307Z,33.25
2018-09-10T11:42:15.647Z,30.82
2018-09-10T11:44:43.978Z,29.87
2018-09-10T11:47:12.365Z,28.83
2018-09-10T11:49:40.846Z,27.93
2018-09-10T11:52:09.327Z,28.04
2018-09-10T11:54:37.678Z,29.49
2018-09-10T11:57:06.063Z,28.69
2018-09-10T11:59:34.396Z,28.73
2018-09-10T12:02:02.885Z,29.13
2018-09-10T12:04:31.173Z,28.74
2018-09-10T12:06:59.614Z,29.39
2018-09-10T12:09:27.954Z,31.11
2018-09-10T12:11:56.372Z,31.56
2018-09-10T12:14:24.767Z,32.49
2018-09-10T12:16:53.207Z,34.80
2018-09-10T12:19:21.578Z,35.29
2018-09-10T12:21:50.098Z,36.32
2018-09-10T12:24:18.497Z,37.61
2018-09-10T12:26:46.965Z,38.06
2018-09-10T12:29:15.345Z,37.78
2018-09-10T12:31:43.750Z,37.89
2018-09-10T12:34:12.178Z,37.24
2018-09-10T12:36:40.569Z,38.35
2018-09-10T12:39:10.331Z,37.46
2018-09-10T12:41:38.798Z,36.29
2018-09-10T12:44:07.695Z,36.11
2018-09-10T12:46:36.526Z,36.35
2018-09-10T12:49:04.904Z,36.16
2018-09-10T12:51:33.362Z,36.61
2018-09-10T12:54:01.782Z,37.99
2018-09-10T12:56:30.216Z,36.77
2018-09-10T12:58:58.668Z,37.19
2018-09-10T13:01:27.013Z,38.08
2018-09-10T13:03:55.435Z,36.94
2018-09-10T13:06:23.859Z,38.03
2018-09-10T13:08:52.558Z,38.11
2018-09-10T13:11:20.962Z,38.62
2018-09-10T13:13:49.532Z,39.01
2018-09-10T13:16:17.924Z,39.32
2018-09-10T13:18:46.345Z,40.89
2018-09-10T13:21:14.766Z,40.54
2018-09-10T13:23:43.212Z,40.18
2018-09-10T13:26:11.675Z,41.76
2018-09-10T13:28:40.084Z,41.94
2018-09-10T13:31:08.471Z,41.50
2018-09-10T13:33:36.862Z,41.83
2018-09-10T13:36:05.250Z,40.78
2018-09-10T13:38:33.720Z,40.47
2018-09-10T13:41:02.199Z,40.30
2018-09-10T13:43:30.577Z,40.38
2018-09-10T13:45:58.973Z,42.25
2018-09-10T13:48:27.429Z,42.29
2018-09-10T13:50:55.861Z,41.09
2018-09-10T13:53:24.277Z,41.54
2018-09-10T13:55:52.652Z,39.36
2018-09-10T13:58:21.249Z,39.68
2018-09-10T14:00:49.674Z,40.16
2018-09-10T14:03:18.050Z,38.98
2018-09-10T14:05:46.443Z,40.31
2018-09-10T14:08:14.854Z,40.82
2018-09-10T14:10:43.288Z,40.18
2018-09-10T14:13:11.745Z,40.71
2018-09-10T14:15:40.136Z,40.47
2018-09-10T14:18:08.797Z,41.08
2018-09-10T14:20:37.199Z,40.03
2018-09-10T14:23:05.613Z,41.09
2018-09-10T14:25:34.015Z,41.14
2018-09-10T14:28:02.448Z,40.30
2018-09-10T14:30:30.910Z,40.39
2018-09-10T14:32:59.232Z,41.25
2018-09-10T14:35:27.561Z,43.80
2018-09-10T14:37:55.930Z,42.80
2018-09-10T14:40:24.334Z,42.94
2018-09-10T14:42:52.783Z,42.58
2018-09-10T14:45:21.172Z,41.13
2018-09-10T14:47:49.567Z,40.67
2018-09-10T14:50:18.250Z,42.34
2018-09-10T14:52:46.630Z,42.30
2018-09-10T14:55:15.025Z,42.69
2018-09-10T14:57:43.384Z,42.96
2018-09-10T15:00:17.066Z,42.60
2018-09-10T15:02:45.352Z,43.55
2018-09-10T15:05:13.656Z,42.53
2018-09-10T15:07:42.222Z,41.77
2018-09-10T15:10:10.484Z,42.00
2018-09-10T15:12:38.879Z,43.67
2018-09-10T15:15:07.210Z,43.18
2018-09-10T15:17:35.794Z,42.82
2018-09-10T15:20:04.211Z,43.30
2018-09-10T15:22:32.647Z,43.61
2018-09-10T15:25:01.048Z,43.50
2018-09-10T15:27:29.460Z,44.18
2018-09-10T15:29:57.878Z,44.94
2018-09-10T15:32:26.240Z,45.33
2018-09-10T15:34:54.838Z,45.37
2018-09-10T15:37:23.192Z,47.44
2018-09-10T15:39:51.686Z,45.50
2018-09-10T15:42:20.105Z,45.71
2018-09-10T15:44:48.553Z,47.00
2018-09-10T15:47:16.971Z,45.49
2018-09-10T15:49:45.380Z,44.53
2018-09-10T15:52:13.810Z,45.39
2018-09-10T15:54:42.299Z,46.30
2018-09-10T15:57:10.874Z,46.73
2018-09-10T15:59:39.337Z,46.85
2018-09-10T16:02:07.843Z,45.96
2018-09-10T16:04:36.241Z,46.33
2018-09-10T16:07:04.600Z,46.17
2018-09-10T16:09:33.012Z,46.77
2018-09-10T16:12:01.410Z,47.56
2018-09-10T16:14:29.799Z,47.44
2018-09-10T16:16:58.255Z,47.68
2018-09-10T16:19:26.695Z,47.73
2018-09-10T16:21:55.119Z,47.31
2018-09-10T16:24:23.535Z,47.48
2018-09-10T16:26:51.938Z,47.75
2018-09-10T16:29:20.342Z,47.40
2018-09-10T16:31:48.763Z,47.84
2018-09-10T16:34:17.201Z,49.34
2018-09-10T16:36:45.610Z,50.50
2018-09-10T16:39:14.005Z,48.40
2018-09-10T16:41:42.423Z,47.97
2018-09-10T16:44:10.811Z,48.83
2018-09-10T16:46:39.226Z,48.72
2018-09-10T16:49:07.712Z,49.04
2018-09-10T16:51:36.090Z,49.62
2018-09-10T16:54:04.558Z,50.05
2018-09-10T16:56:32.899Z,48.04
2018-09-10T16:59:01.342Z,46.98
2018-09-10T17:01:29.763Z,47.74
2018-09-10T17:03:58.136Z,47.89
2018-09-10T17:06:26.844Z,47.91
2018-09-10T17:08:55.210Z,48.52
2018-09-10T17:11:23.606Z,48.25
2018-09-10T17:13:51.990Z,47.82
2018-09-10T17:16:27.085Z,46.66
2018-09-10T17:18:55.466Z,47.75
2018-09-10T17:21:23.864Z,48.52
2018-09-10T17:23:52.274Z,48.09
2018-09-10T17:26:20.731Z,48.04
2018-09-10T17:28:49.188Z,48.73
2018-09-10T17:31:17.602Z,47.94
2018-09-10T17:33:46.014Z,48.42
2018-09-10T17:36:14.474Z,46.83
2018-09-10T17:38:42.876Z,48.67
2018-09-10T17:41:11.322Z,48.52
2018-09-10T17:43:39.678Z,47.64
2018-09-10T17:46:08.959Z,48.12
2018-09-10T17:48:37.312Z,48.56
2018-09-10T17:51:05.594Z,48.56
2018-09-10T17:53:33.978Z,48.80
2018-09-10T17:56:02.306Z,48.74
2018-09-10T17:58:30.720Z,49.62
2018-09-10T18:00:59.084Z,49.47
2018-09-10T18:03:27.484Z,49.32
2018-09-10T18:05:55.828Z,49.40
2018-09-10T18:08:24.194Z,49.25
2018-09-10T18:10:52.559Z,49.39
2018-09-10T18:13:21.018Z,50.29
2018-09-10T18:15:49.257Z,49.56
2018-09-10T18:18:17.781Z,49.58
2018-09-10T18:20:46.120Z,49.20
2018-09-10T18:23:14.442Z,49.07
2018-09-10T18:25:42.774Z,48.80
2018-09-10T18:28:11.184Z,49.23
2018-09-10T18:30:39.630Z,50.18
2018-09-10T18:33:08.035Z,49.99
2018-09-10T18:35:36.433Z,50.44
2018-09-10T18:38:04.823Z,50.32
2018-09-10T18:40:33.514Z,49.71
2018-09-10T18:43:02.288Z,50.93
2018-09-10T18:45:30.795Z,49.82
2018-09-10T18:48:06.473Z,49.96
2018-09-10T18:50:34.928Z,49.63
2018-09-10T18:53:03.432Z,49.62
2018-09-10T18:55:32.015Z,49.18
2018-09-10T18:58:00.627Z,49.87
2018-09-10T19:00:29.046Z,49.35
2018-09-10T19:02:57.555Z,49.56
2018-09-10T19:05:26.005Z,49.61
2018-09-10T19:07:55.381Z,49.98
2018-09-10T19:10:23.800Z,50.17
2018-09-10T19:12:53.314Z,50.56
2018-09-10T19:15:22.599Z,50.14
2018-09-10T19:17:51.044Z,51.15
2018-09-10T19:20:20.473Z,51.16
2018-09-10T19:22:50.591Z,50.81
2018-09-10T19:25:19.055Z,52.02
2018-09-10T19:27:47.484Z,51.51
2018-09-10T19:30:15.955Z,50.98
2018-09-10T19:32:44.558Z,51.75
2018-09-10T19:35:12.963Z,52.13
2018-09-10T19:37:41.490Z,50.44
2018-09-10T19:40:09.867Z,51.60
2018-09-10T19:42:38.332Z,51.56
2018-09-10T19:45:06.878Z,50.13
2018-09-10T19:47:35.310Z,51.06
2018-09-10T19:50:03.858Z,49.92
2018-09-10T19:52:32.261Z,50.77
2018-09-10T19:55:00.634Z,50.25
2018-09-10T19:57:29.028Z,51.43
2018-09-10T19:59:57.574Z,52.10
2018-09-10T20:02:26.234Z,51.68
2018-09-10T20:04:54.658Z,51.59
2018-09-10T20:07:23.071Z,51.84
2018-09-10T20:09:51.586Z,52.37
2018-09-10T20:12:20.055Z,52.64
2018-09-10T20:14:48.439Z,53.10
2018-09-10T20:17:16.904Z,52.73
2018-09-10T20:19:45.278Z,53.31
2018-09-10T20:22:15.144Z,53.05
2018-09-10T20:24:43.604Z,52.56
2018-09-10T20:27:12.051Z,53.41
2018-09-10T20:29:40.454Z,52.60
2018-09-10T20:32:09.768Z,52.03
2018-09-10T20:34:38.110Z,52.84
2018-09-10T20:37:06.524Z,51.82
2018-09-10T20:39:34.925Z,53.41
2018-09-10T20:42:03.212Z,53.17
2018-09-10T20:44:31.597Z,52.43
2018-09-10T20:46:59.915Z,52.94
2018-09-10T20:49:28.225Z,52.63
2018-09-10T20:51:56.583Z,52.31
2018-09-10T20:54:24.905Z,51.29
2018-09-10T20:56:53.231Z,52.15
2018-09-10T20:59:21.579Z,51.45
2018-09-10T21:01:49.947Z,52.00
2018-09-10T21:04:18.298Z,52.83
2018-09-10T21:06:46.567Z,51.60
2018-09-10T21:09:14.936Z,52.11
2018-09-10T21:11:43.270Z,51.93
2018-09-10T21:14:11.652Z,52.15
2018-09-10T21:16:39.973Z,51.76
2018-09-10T21:19:08.367Z,50.99
2018-09-10T21:21:36.766Z,51.92
2018-09-10T21:24:05.208Z,51.95
2018-09-10T21:26:33.598Z,51.05
2018-09-10T21:29:01.984Z,52.32
2018-09-10T21:31:30.383Z,51.92
2018-09-10T21:33:58.650Z,52.74
2018-09-10T21:36:27.066Z,51.93
2018-09-10T21:38:55.434Z,54.29
2018-09-10T21:41:23.859Z,53.25
2018-09-10T21:43:52.267Z,52.83
2018-09-10T21:46:20.637Z,52.22
2018-09-10T21:48:49.051Z,53.13
2018-09-10T21:51:17.453Z,53.13
2018-09-10T21:53:45.936Z,52.30
2018-09-10T21:56:14.283Z,53.34
2018-09-10T21:58:42.619Z,53.25
2018-09-10T22:01:11.026Z,52.26
2018-09-10T22:03:39.431Z,52.23
2018-09-10T22:06:07.834Z,52.07
2018-09-10T22:08:36.187Z,51.30
2018-09-10T22:11:04.606Z,52.45
2018-09-10T22:13:32.975Z,51.92
2018-09-10T22:16:01.384Z,52.58
2018-09-10T22:18:29.733Z,52.87
2018-09-10T22:20:58.090Z,52.55
2018-09-10T22:23:26.390Z,52.22
2018-09-10T22:25:54.759Z,53.14
2018-09-10T22:28:23.021Z,53.88
2018-09-10T22:30:51.442Z,55.28
2018-09-10T22:33:19.787Z,53.10
2018-09-10T22:35:48.197Z,53.62
2018-09-10T22:38:16.754Z,54.32
2018-09-10T22:40:45.007Z,53.42
2018-09-10T22:43:13.341Z,57.22
2018-09-10T22:45:41.674Z,57.75
2018-09-10T22:48:10.088Z,57.42
2018-09-10T22:50:38.451Z,57.07
2018-09-10T22:53:06.715Z,56.55
2018-09-10T22:55:35.171Z,56.84
2018-09-10T22:58:03.427Z,57.28
2018-09-10T23:00:31.831Z,57.17
2018-09-10T23:03:00.208Z,55.59
2018-09-10T23:05:28.481Z,55.40
2018-09-10T23:07:56.865Z,56.81
2018-09-10T23:10:25.277Z,54.96
2018-09-10T23:12:53.799Z,56.51
2018-09-10T23:15:22.181Z,57.49
2018-09-10T23:17:50.620Z,56.44
2018-09-10T23:20:19.042Z,55.74
2018-09-10T23:22:47.452Z,56.66
2018-09-10T23:25:15.885Z,55.11
2018-09-10T23:27:44.378Z,57.35
2018-09-10T23:30:12.884Z,56.49
2018-09-10T23:32:41.279Z,56.50
2018-09-10T23:35:09.685Z,55.80
2018-09-10T23:37:38.102Z,55.38
2018-09-10T23:40:06.618Z,54.60
2018-09-10T23:42:35.028Z,54.81
2018-09-10T23:45:03.450Z,53.86
2018-09-10T23:47:31.914Z,57.62
2018-09-10T23:50:00.334Z,57.01
2018-09-10T23:52:28.782Z,56.08
2018-09-10T23:54:57.223Z,56.37
2018-09-10T23:57:25.647Z,57.85
2018-09-10T23:59:54.418Z,56.97
